createdAt,value
2022-11-16T00:04:05.695Z,42.76
2022-11-16T00:09:11.722Z,44.38
2022-11-16T00:14:16.991Z,45.29
2022-11-16T00:19:20.608Z,45.62
2022-11-16T00:24:24.597Z,45.73
2022-11-16T00:29:29.985Z,46.84
2022-11-16T00:34:33.753Z,47.56
2022-11-16T00:39:37.371Z,47.54
2022-11-16T00:44:42.591Z,48.99
2022-11-16T00:49:46.173Z,48.17
2022-11-16T00:54:49.782Z,48.51
2022-11-16T00:59:55.026Z,47.41
2022-11-16T01:04:58.630Z,48.27
2022-11-16T01:10:02.247Z,47.85
2022-11-16T01:15:09.277Z,47.40
2022-11-16T01:20:15.123Z,46.31
2022-11-16T01:25:19.291Z,46.29
2022-11-16T01:30:24.493Z,45.55
2022-11-16T01:35:28.041Z,46.11
2022-11-16T01:40:31.573Z,46.80
2022-11-16T01:45:39.685Z,46.48
2022-11-16T01:50:44.054Z,45.96
2022-11-16T01:55:49.913Z,46.56
2022-11-16T02:00:55.312Z,47.46
2022-11-16T02:06:16.189Z,48.08
2022-11-16T02:11:34.368Z,47.36
2022-11-16T02:16:48.108Z,48.09
2022-11-16T02:22:03.406Z,48.09
2022-11-16T02:27:33.380Z,47.49
2022-11-16T02:32:43.004Z,48.43
2022-11-16T02:37:51.991Z,48.45
2022-11-16T02:43:01.593Z,48.64
2022-11-16T02:48:11.393Z,48.28
2022-11-16T02:53:15.134Z,48.14
2022-11-16T02:58:22.446Z,48.25
2022-11-16T03:03:35.329Z,47.93
2022-11-16T03:08:43.704Z,48.98
2022-11-16T03:13:49.372Z,48.95
2022-11-16T03:18:58.266Z,50.40
2022-11-16T03:24:02.232Z,49.94
2022-11-16T03:29:15.108Z,49.23
2022-11-16T03:34:23.788Z,49.17
2022-11-16T03:39:34.329Z,49.57
2022-11-16T03:44:39.309Z,48.81
2022-11-16T03:49:47.895Z,49.79
2022-11-16T03:54:51.542Z,49.49
2022-11-16T03:59:55.118Z,49.65
2022-11-16T04:05:00.404Z,49.35
2022-11-16T04:10:04.151Z,48.77
2022-11-16T04:15:10.722Z,52.24
2022-11-16T04:20:17.449Z,52.11
2022-11-16T04:25:28.504Z,51.27
2022-11-16T04:30:40.344Z,52.30
2022-11-16T04:35:46.915Z,53.16
2022-11-16T04:40:52.375Z,53.34
2022-11-16T04:45:57.682Z,54.07
2022-11-16T04:51:09.587Z,55.28
2022-11-16T04:56:16.276Z,55.25
2022-11-16T05:01:25.963Z,54.61
2022-11-16T05:06:37.592Z,55.09
2022-11-16T05:11:43.496Z,54.91
2022-11-16T05:16:48.370Z,54.53
2022-11-16T05:21:56.953Z,55.08
2022-11-16T05:27:05.053Z,55.28
2022-11-16T05:32:11.259Z,55.79
2022-11-16T05:37:16.803Z,57.25
2022-11-16T05:42:21.621Z,56.54
2022-11-16T05:47:26.208Z,56.73
2022-11-16T05:52:32.374Z,55.63
2022-11-16T05:57:37.133Z,57.01
2022-11-16T06:02:41.972Z,56.25
2022-11-16T06:07:50.687Z,57.50
2022-11-16T06:12:56.092Z,56.87
2022-11-16T06:18:00.624Z,56.34
2022-11-16T06:23:08.327Z,55.95
2022-11-16T06:28:13.390Z,55.13
2022-11-16T06:33:18.194Z,56.12
2022-11-16T06:38:24.544Z,56.58
2022-11-16T06:43:28.210Z,57.62
2022-11-16T06:48:34.268Z,56.38
2022-11-16T06:53:39.914Z,57.60
2022-11-16T06:58:44.177Z,57.61
2022-11-16T07:03:48.365Z,56.59
2022-11-16T07:08:54.672Z,57.71
2022-11-16T07:13:57.522Z,58.18
2022-11-16T07:19:01.752Z,57.28
2022-11-16T07:24:08.538Z,57.85
2022-11-16T07:29:12.443Z,57.36
2022-11-16T07:34:16.194Z,57.17
2022-11-16T07:39:21.897Z,57.60
2022-11-16T07:44:25.846Z,57.84
2022-11-16T07:49:29.428Z,57.92
2022-11-16T07:54:34.620Z,58.33
2022-11-16T07:59:38.149Z,58.04
2022-11-16T08:04:41.746Z,57.63
2022-11-16T08:09:46.981Z,58.03
2022-11-16T08:14:50.559Z,58.89
2022-11-16T08:19:54.103Z,59.23
2022-11-16T08:24:59.270Z,59.37
2022-11-16T08:30:02.867Z,58.90
2022-11-16T08:35:07.145Z,58.48
2022-11-16T08:40:13.157Z,59.10
2022-11-16T08:45:16.852Z,59.06
2022-11-16T08:50:20.465Z,59.94
2022-11-16T08:55:26.956Z,59.94
2022-11-16T09:00:29.778Z,60.11
2022-11-16T09:05:33.329Z,60.03
2022-11-16T09:10:38.694Z,60.01
2022-11-16T09:15:42.215Z,60.22
2022-11-16T09:20:45.816Z,60.58
2022-11-16T09:25:51.051Z,59.26
2022-11-16T09:30:54.611Z,60.28
2022-11-16T09:36:02.204Z,61.20
2022-11-16T09:41:25.730Z,61.82
2022-11-16T09:46:35.442Z,61.78
2022-11-16T09:51:40.929Z,61.09
2022-11-16T09:56:49.043Z,61.68
2022-11-16T10:01:58.555Z,61.94
2022-11-16T10:07:07.855Z,62.32
2022-11-16T10:12:21.357Z,62.49
2022-11-16T10:17:38.920Z,62.84
2022-11-16T10:22:52.640Z,62.74
2022-11-16T10:28:24.066Z,62.61
2022-11-16T10:33:29.449Z,62.68
2022-11-16T10:38:34.092Z,62.33
2022-11-16T10:43:40.553Z,62.77
2022-11-16T10:48:49.952Z,64.00
2022-11-16T10:53:53.481Z,62.09
2022-11-16T10:59:00.589Z,63.37
2022-11-16T11:04:22.043Z,63.16
2022-11-16T11:09:28.503Z,62.24
2022-11-16T11:14:33.878Z,64.19
2022-11-16T11:19:37.412Z,62.10
2022-11-16T11:24:48.227Z,62.79
2022-11-16T11:29:56.089Z,63.17
2022-11-16T11:35:00.064Z,62.64
2022-11-16T11:40:25.100Z,63.37
2022-11-16T11:45:47.795Z,63.64
2022-11-16T11:50:55.188Z,63.12
2022-11-16T11:56:02.514Z,63.00
2022-11-16T12:01:31.548Z,62.90
2022-11-16T12:06:46.649Z,64.01
2022-11-16T12:12:01.887Z,62.93
2022-11-16T12:17:17.572Z,63.75
2022-11-16T12:22:39.118Z,62.88
2022-11-16T12:27:50.168Z,62.40
2022-11-16T12:33:12.674Z,62.64
2022-11-16T12:38:30.683Z,64.48
2022-11-16T12:43:42.976Z,63.90
2022-11-16T12:49:23.058Z,63.00
2022-11-16T12:55:23.671Z,62.88
2022-11-16T13:00:13.341Z,64.08
2022-11-16T13:05:21.576Z,64.23
2022-11-16T13:10:30.047Z,64.26
2022-11-16T13:15:38.327Z,64.57
2022-11-16T13:20:50.677Z,64.66
2022-11-16T13:26:01.899Z,64.74
2022-11-16T13:31:12.371Z,64.90
2022-11-16T13:36:45.608Z,65.28
2022-11-16T13:41:51.165Z,64.93
2022-11-16T13:46:58.049Z,64.39
2022-11-16T13:52:22.727Z,64.88
2022-11-16T13:57:30.429Z,64.79
2022-11-16T14:02:36.496Z,65.23
2022-11-16T14:07:42.929Z,65.19
2022-11-16T14:12:55.108Z,65.28
2022-11-16T14:18:01.997Z,65.02
2022-11-16T14:23:20.401Z,64.85
2022-11-16T14:28:47.982Z,66.35
2022-11-16T14:33:53.454Z,65.19
2022-11-16T14:39:24.154Z,65.76
2022-11-16T14:44:32.155Z,64.80
2022-11-16T14:49:38.339Z,65.57
2022-11-16T14:54:51.554Z,65.78
2022-11-16T15:00:09.285Z,66.28
2022-11-16T15:05:17.157Z,65.97
2022-11-16T15:10:24.283Z,64.93
2022-11-16T15:15:29.310Z,64.42
2022-11-16T15:20:35.012Z,63.59
2022-11-16T15:25:43.457Z,63.35
2022-11-16T15:30:50.658Z,62.47
2022-11-16T15:35:55.444Z,61.46
2022-11-16T15:41:02.389Z,60.93
2022-11-16T15:46:07.970Z,60.36
2022-11-16T15:51:16.983Z,60.30
2022-11-16T15:56:31.340Z,59.46
2022-11-16T16:01:42.936Z,59.12
2022-11-16T16:06:51.599Z,59.98
2022-11-16T16:12:11.920Z,59.39
2022-11-16T16:17:25.103Z,57.12
2022-11-16T16:22:31.401Z,58.88
2022-11-16T16:27:40.727Z,58.55
2022-11-16T16:32:48.127Z,56.54
2022-11-16T16:37:56.935Z,56.20
2022-11-16T16:43:03.018Z,54.33
2022-11-16T16:48:08.847Z,54.54
2022-11-16T16:53:13.701Z,54.94
2022-11-16T16:58:18.902Z,53.00
2022-11-16T17:03:24.082Z,51.82
2022-11-16T17:08:28.321Z,52.16
2022-11-16T17:13:36.243Z,51.43
2022-11-16T17:18:41.365Z,50.98
2022-11-16T17:23:45.472Z,50.14
2022-11-16T17:28:57.713Z,46.62
2022-11-16T17:34:01.832Z,47.78
2022-11-16T17:39:06.935Z,47.23
2022-11-16T17:44:18.572Z,45.60
2022-11-16T17:49:24.879Z,45.64
2022-11-16T17:54:29.561Z,45.08
2022-11-16T17:59:36.042Z,43.70
2022-11-16T18:04:39.665Z,43.72
2022-11-16T18:09:43.229Z,43.56
2022-11-16T18:15:13.463Z,43.87
2022-11-16T18:20:14.197Z,41.65
2022-11-16T18:25:17.845Z,40.06
2022-11-16T18:30:24.487Z,38.83
2022-11-16T18:35:28.022Z,37.58
2022-11-16T18:40:31.693Z,35.74
2022-11-16T18:45:36.902Z,34.26
2022-11-16T18:50:40.427Z,33.33
2022-11-16T18:55:44.016Z,32.07
2022-11-16T19:00:49.750Z,31.86
2022-11-16T19:05:57.175Z,30.92
2022-11-16T19:11:05.303Z,31.62
2022-11-16T19:16:12.173Z,29.09
2022-11-16T19:21:17.082Z,30.77
2022-11-16T19:26:21.913Z,30.52
2022-11-16T19:31:28.580Z,30.08
2022-11-16T19:36:33.310Z,29.19
2022-11-16T19:41:36.883Z,29.12
2022-11-16T19:46:42.973Z,27.35
2022-11-16T19:51:46.566Z,28.24
2022-11-16T19:56:54.843Z,27.13
2022-11-16T20:02:00.477Z,27.59
2022-11-16T20:07:04.086Z,28.20
2022-11-16T20:12:07.914Z,27.55
2022-11-16T20:17:13.138Z,27.30
2022-11-16T20:22:16.660Z,26.91
2022-11-16T20:27:20.193Z,26.82
2022-11-16T20:32:25.508Z,27.59
2022-11-16T20:37:29.034Z,27.43
2022-11-16T20:42:32.601Z,26.72
2022-11-16T20:47:37.765Z,25.28
2022-11-16T20:52:43.692Z,26.20
2022-11-16T20:57:49.718Z,25.58
2022-11-16T21:02:54.942Z,24.68
2022-11-16T21:07:58.551Z,25.29
2022-11-16T21:13:02.104Z,24.98
2022-11-16T21:18:07.414Z,24.47
2022-11-16T21:23:10.946Z,24.01
2022-11-16T21:28:14.502Z,24.23
2022-11-16T21:33:19.675Z,23.20
2022-11-16T21:38:25.091Z,23.39
2022-11-16T21:43:28.890Z,23.31
2022-11-16T21:48:35.018Z,23.44
2022-11-16T21:53:38.928Z,23.41
2022-11-16T21:58:42.883Z,23.45
2022-11-16T22:03:48.106Z,22.94
2022-11-16T22:08:52.282Z,23.65
2022-11-16T22:13:55.846Z,22.93
2022-11-16T22:19:01.168Z,23.20
2022-11-16T22:24:04.910Z,23.64
2022-11-16T22:29:08.499Z,22.77
2022-11-16T22:34:13.849Z,23.60
2022-11-16T22:39:17.465Z,23.60
2022-11-16T22:44:21.003Z,23.40
2022-11-16T22:49:26.201Z,23.15
2022-11-16T22:54:29.747Z,23.95
2022-11-16T22:59:33.339Z,26.82
2022-11-16T23:04:38.540Z,27.79
2022-11-16T23:09:42.162Z,28.55
2022-11-16T23:14:45.826Z,29.19
2022-11-16T23:19:51.071Z,33.27
2022-11-16T23:24:54.691Z,32.09
2022-11-16T23:29:58.796Z,32.72
2022-11-16T23:35:04.688Z,33.85
2022-11-16T23:40:09.277Z,33.84
2022-11-16T23:45:12.859Z,34.36
2022-11-16T23:50:18.437Z,35.15
2022-11-16T23:55:21.275Z,37.60
